Time;durP1;ratioP1;P1;durP2;ratioP2;P2;SDS_P1;SDS_P2;PMS_P1;PMS_P2;Temp;Humidity;BMP_temperature;BMP_pressure;BME280_temperature;BME280_humidity;BME280_pressure;Samples;Min_cycle;Max_cycle;Signal;HPM_P1;HPM_P2
2022/11/09 00:01:35;;;;;;;0.20;0.00;;;15.00;99.90;;;;;;25533385;23;20376;-71
2022/11/09 00:11:39;;;;;;;0.20;0.00;;;14.90;99.90;;;;;;25531852;23;20385;-71
2022/11/09 00:21:44;;;;;;;0.20;0.00;;;14.90;99.90;;;;;;25535028;23;20381;-71
2022/11/09 00:31:49;;;;;;;0.20;0.00;;;14.90;99.90;;;;;;25533465;23;20396;-71
2022/11/09 00:41:54;;;;;;;0.20;0.00;;;14.90;99.90;;;;;;25533122;23;20373;-70
2022/11/09 00:51:58;;;;;;;0.20;0.10;;;15.10;99.90;;;;;;25533704;23;20369;-70
2022/11/09 01:02:03;;;;;;;0.20;0.10;;;15.10;99.90;;;;;;25507450;23;20413;-71
2022/11/09 01:12:07;;;;;;;0.20;0.10;;;15.00;99.90;;;;;;25536446;23;20449;-70
2022/11/09 01:22:12;;;;;;;0.20;0.00;;;15.00;99.90;;;;;;25541558;23;20381;-71
2022/11/09 01:32:17;;;;;;;0.20;0.10;;;15.10;99.90;;;;;;25513320;23;20483;-70
2022/11/09 01:42:25;;;;;;;0.20;0.10;;;15.20;99.90;;;;;;25539485;23;20373;-70
2022/11/09 01:52:32;;;;;;;0.20;0.10;;;15.40;99.90;;;;;;25538636;23;20396;-70
2022/11/09 02:02:48;;;;;;;0.20;0.00;;;15.40;99.90;;;;;;25510804;23;20424;-72
2022/11/09 02:12:53;;;;;;;0.20;0.10;;;15.30;99.90;;;;;;25513262;23;20393;-72
2022/11/09 02:22:58;;;;;;;0.20;0.00;;;15.20;99.90;;;;;;25539738;23;20365;-71
2022/11/09 02:33:02;;;;;;;0.20;0.00;;;15.40;99.90;;;;;;25511598;23;20377;-71
2022/11/09 02:43:09;;;;;;;0.20;0.10;;;15.40;99.90;;;;;;25537292;23;20380;-70
2022/11/09 02:53:15;;;;;;;0.20;0.00;;;15.50;99.90;;;;;;25537563;23;20377;-70
2022/11/09 03:03:21;;;;;;;0.20;0.10;;;15.50;99.90;;;;;;25537014;23;20381;-71
2022/11/09 03:13:25;;;;;;;0.20;0.00;;;15.60;99.90;;;;;;25509816;23;20384;-72
2022/11/09 03:23:30;;;;;;;0.20;0.10;;;15.60;99.90;;;;;;25536369;23;20361;-71
2022/11/09 03:33:34;;;;;;;0.20;0.00;;;15.50;99.90;;;;;;25536324;23;20473;-71
2022/11/09 03:43:39;;;;;;;0.20;0.00;;;15.60;99.90;;;;;;25533867;23;20374;-71
2022/11/09 03:53:43;;;;;;;0.20;0.10;;;15.70;99.90;;;;;;25536196;23;21134;-70
2022/11/09 04:03:48;;;;;;;0.20;0.00;;;15.70;99.90;;;;;;25529357;23;20748;-72
2022/11/09 04:13:52;;;;;;;0.20;0.10;;;15.70;99.90;;;;;;25510759;23;20377;-71
2022/11/09 04:23:57;;;;;;;0.20;0.03;;;15.80;99.90;;;;;;25509394;23;20365;-71
2022/11/09 04:34:01;;;;;;;0.20;0.03;;;15.60;99.90;;;;;;25535176;23;20405;-71
2022/11/09 04:44:06;;;;;;;0.20;0.00;;;15.60;99.90;;;;;;25534277;23;20369;-71
2022/11/09 04:54:11;;;;;;;0.20;0.10;;;15.50;99.90;;;;;;25541329;23;20380;-72
2022/11/09 05:04:16;;;;;;;0.20;0.00;;;15.50;99.90;;;;;;25516313;23;20421;-73
2022/11/09 05:14:20;;;;;;;0.20;0.10;;;15.40;99.90;;;;;;25541922;23;20365;-72
2022/11/09 05:24:25;;;;;;;0.20;0.10;;;15.00;99.90;;;;;;25540139;23;20449;-73
2022/11/09 05:34:28;;;;;;;0.20;0.00;;;14.70;99.90;;;;;;25515657;23;20869;-72
2022/11/09 05:44:34;;;;;;;0.20;0.00;;;14.60;99.90;;;;;;25514570;23;20384;-71
2022/11/09 05:54:37;;;;;;;0.20;0.03;;;14.70;99.90;;;;;;25513260;23;20385;-72
2022/11/09 06:04:42;;;;;;;0.20;0.10;;;14.70;99.90;;;;;;25512513;23;20369;-71
2022/11/09 06:14:47;;;;;;;0.20;0.10;;;14.30;99.90;;;;;;25537065;23;20384;-69
2022/11/09 06:24:52;;;;;;;0.20;0.10;;;14.30;99.90;;;;;;25511658;23;20380;-70
2022/11/09 06:34:55;;;;;;;0.20;0.10;;;14.20;99.90;;;;;;25533070;23;20385;-71
2022/11/09 06:45:01;;;;;;;0.20;0.10;;;14.60;99.90;;;;;;25532900;23;20417;-70
2022/11/09 06:55:07;;;;;;;0.20;0.00;;;15.30;99.90;;;;;;25527947;23;20377;-70
2022/11/09 07:05:12;;;;;;;0.20;0.10;;;15.80;99.90;;;;;;25498168;23;20370;-71
2022/11/09 07:15:17;;;;;;;0.20;0.00;;;15.80;99.90;;;;;;25530857;23;20373;-72
2022/11/09 07:25:23;;;;;;;0.20;0.00;;;16.00;99.90;;;;;;25531412;23;20432;-70
2022/11/09 07:35:27;;;;;;;0.20;0.10;;;16.20;99.90;;;;;;25531062;23;20373;-72
2022/11/09 07:45:34;;;;;;;0.20;0.00;;;16.40;99.90;;;;;;25531299;23;20377;-73
2022/11/09 07:55:38;;;;;;;0.20;0.00;;;17.00;99.90;;;;;;25528389;23;20392;-71
2022/11/09 08:05:43;;;;;;;0.20;0.07;;;17.40;99.90;;;;;;25528843;23;20372;-70
2022/11/09 08:15:48;;;;;;;0.20;0.00;;;17.90;99.90;;;;;;25531580;23;20393;-71
2022/11/09 08:25:53;;;;;;;0.20;0.00;;;18.30;99.90;;;;;;25537184;23;21124;-71
2022/11/09 08:35:57;;;;;;;0.20;0.00;;;18.60;99.90;;;;;;25540084;23;20376;-72
2022/11/09 08:46:02;;;;;;;0.20;0.10;;;19.00;99.90;;;;;;25537514;23;20363;-71
2022/11/09 08:56:06;;;;;;;0.20;0.00;;;19.70;99.90;;;;;;25510397;23;20384;-70
2022/11/09 09:06:11;;;;;;;0.20;0.00;;;19.70;99.90;;;;;;25537108;23;20376;-70
2022/11/09 09:16:16;;;;;;;0.20;0.00;;;20.50;99.90;;;;;;25512173;23;20411;-71
2022/11/09 09:26:21;;;;;;;0.20;0.00;;;20.90;99.90;;;;;;25511890;23;20369;-70
2022/11/09 09:36:25;;;;;;;0.20;0.10;;;21.10;99.90;;;;;;25508398;23;20385;-72
2022/11/09 09:46:35;;;;;;;0.20;0.00;;;21.40;99.90;;;;;;25505384;23;20362;-71
2022/11/09 09:56:40;;;;;;;0.20;0.00;;;21.60;99.90;;;;;;25531372;23;20396;-71
2022/11/09 10:06:58;;;;;;;0.20;0.00;;;22.20;99.90;;;;;;25533835;23;20454;-70
2022/11/09 10:17:10;;;;;;;0.20;0.00;;;22.50;99.90;;;;;;25533482;23;20392;-73
2022/11/09 10:27:26;;;;;;;0.20;0.10;;;22.30;99.90;;;;;;25532986;23;20379;-72
2022/11/09 10:37:38;;;;;;;0.20;0.07;;;22.60;99.90;;;;;;25530932;23;20444;-70
2022/11/09 10:47:52;;;;;;;0.20;0.00;;;22.60;99.90;;;;;;25504101;23;20368;-72
2022/11/09 10:57:59;;;;;;;0.20;0.10;;;22.50;99.90;;;;;;25503817;23;20377;-74
2022/11/09 11:08:31;;;;;;;0.20;0.00;;;22.60;99.90;;;;;;25505846;23;20378;-71
2022/11/09 11:18:36;;;;;;;0.20;0.10;;;22.30;99.90;;;;;;25479027;23;20433;-70
2022/11/09 11:28:50;;;;;;;0.20;0.00;;;22.70;99.90;;;;;;25504994;23;20365;-73
2022/11/09 11:39:00;;;;;;;0.20;0.00;;;22.80;99.90;;;;;;25529028;23;20399;-72
2022/11/09 11:49:42;;;;;;;0.20;0.10;;;22.40;99.90;;;;;;25529160;23;20365;-71
2022/11/09 12:00:00;;;;;;;0.20;0.00;;;22.70;99.90;;;;;;25389473;23;20479;-72
2022/11/09 12:10:23;;;;;;;0.20;0.10;;;22.70;99.90;;;;;;25530778;23;20443;-71
2022/11/09 12:20:34;;;;;;;0.20;0.00;;;24.10;99.90;;;;;;25479522;23;20394;-72
2022/11/09 12:30:51;;;;;;;0.20;0.00;;;23.00;99.90;;;;;;25533198;23;20365;-73
2022/11/09 12:41:01;;;;;;;0.20;0.00;;;23.40;99.90;;;;;;25530175;23;20397;-72
2022/11/09 12:51:08;;;;;;;0.20;0.00;;;23.10;99.90;;;;;;25529895;23;20370;-71
2022/11/09 13:01:13;;;;;;;0.20;0.00;;;23.00;99.90;;;;;;25506671;23;20377;-71
2022/11/09 13:11:27;;;;;;;0.20;0.00;;;23.20;99.90;;;;;;25533301;23;20450;-71
2022/11/09 13:21:39;;;;;;;0.20;0.00;;;23.10;99.90;;;;;;25535776;23;20388;-72
2022/11/09 13:32:05;;;;;;;0.20;0.00;;;24.00;99.90;;;;;;25532678;23;20357;-73
2022/11/09 13:42:27;;;;;;;0.20;0.00;;;23.80;99.90;;;;;;25524969;23;20400;-73
2022/11/09 13:52:53;;;;;;;0.20;0.07;;;23.60;99.90;;;;;;25507243;23;20366;-72
2022/11/09 14:03:01;;;;;;;0.20;0.00;;;24.30;99.90;;;;;;25533555;23;20388;-72
2022/11/09 14:13:36;;;;;;;0.20;0.00;;;24.50;99.90;;;;;;25508728;23;20437;-72
2022/11/09 14:23:40;;;;;;;0.20;0.00;;;24.40;99.90;;;;;;25511336;23;20386;-69
2022/11/09 14:33:59;;;;;;;0.20;0.00;;;24.70;99.90;;;;;;25531440;23;20437;-71
2022/11/09 14:44:03;;;;;;;0.20;0.00;;;24.40;99.90;;;;;;25531417;23;20396;-72
2022/11/09 14:54:13;;;;;;;0.20;0.00;;;25.30;99.90;;;;;;25534831;23;20376;-72
2022/11/09 15:04:20;;;;;;;0.20;0.00;;;23.80;99.90;;;;;;25531464;23;20388;-73
2022/11/09 15:14:28;;;;;;;0.20;0.00;;;23.60;99.90;;;;;;25532330;23;20361;-71
2022/11/09 15:24:45;;;;;;;0.20;0.10;;;23.20;99.90;;;;;;25530857;23;20396;-72
2022/11/09 15:34:57;;;;;;;0.20;0.00;;;23.20;99.90;;;;;;25530748;23;20358;-69
2022/11/09 15:45:00;;;;;;;0.20;0.00;;;22.80;99.90;;;;;;25504297;23;20385;-72
2022/11/09 15:55:07;;;;;;;0.20;0.00;;;22.60;99.90;;;;;;25505638;23;20385;-72
2022/11/09 16:05:10;;;;;;;0.20;0.10;;;22.40;99.90;;;;;;25529135;23;20377;-71
2022/11/09 16:15:16;;;;;;;0.20;0.10;;;22.20;99.90;;;;;;25501308;23;20393;-72
2022/11/09 16:25:20;;;;;;;0.20;0.00;;;22.00;99.90;;;;;;25528422;23;20369;-70
2022/11/09 16:35:25;;;;;;;0.20;0.00;;;21.90;99.90;;;;;;25530142;23;20380;-73
2022/11/09 16:45:32;;;;;;;0.20;0.00;;;21.60;99.90;;;;;;25536638;23;20369;-71
2022/11/09 16:55:37;;;;;;;0.20;0.10;;;21.50;99.90;;;;;;25507906;23;20369;-71
2022/11/09 17:05:42;;;;;;;0.20;0.00;;;21.30;99.90;;;;;;25536551;23;20365;-71
2022/11/09 17:15:49;;;;;;;0.20;0.10;;;21.10;99.90;;;;;;25533999;23;20370;-70
2022/11/09 17:25:56;;;;;;;0.20;0.00;;;21.20;99.90;;;;;;25533462;23;20369;-71
2022/11/09 17:36:03;;;;;;;0.20;0.00;;;21.10;99.90;;;;;;25533369;23;20381;-72
2022/11/09 17:46:09;;;;;;;0.20;0.10;;;20.90;99.90;;;;;;25533900;23;20393;-71
2022/11/09 17:56:15;;;;;;;0.20;0.03;;;21.00;99.90;;;;;;25533195;23;20377;-68
2022/11/09 18:06:20;;;;;;;0.20;0.00;;;20.70;99.90;;;;;;25506388;23;20361;-71
2022/11/09 18:16:28;;;;;;;0.20;0.00;;;20.50;99.90;;;;;;25532580;23;20385;-71
2022/11/09 18:26:33;;;;;;;0.20;0.00;;;20.60;99.90;;;;;;25528671;23;20440;-71
2022/11/09 18:36:38;;;;;;;0.20;0.00;;;20.80;99.90;;;;;;25528324;23;20401;-72
2022/11/09 18:46:42;;;;;;;0.20;0.00;;;20.70;99.90;;;;;;25528210;23;20395;-70
2022/11/09 18:56:47;;;;;;;0.20;0.08;;;20.70;99.90;;;;;;25527793;23;20377;-72
2022/11/09 19:06:53;;;;;;;0.20;0.00;;;20.50;99.90;;;;;;25526780;23;20384;-71
2022/11/09 19:16:58;;;;;;;0.20;0.00;;;20.00;99.90;;;;;;25498030;23;20432;-70
2022/11/09 19:27:02;;;;;;;0.20;0.00;;;20.30;99.90;;;;;;25499856;23;20373;-69
2022/11/09 19:37:08;;;;;;;0.20;0.00;;;20.30;99.90;;;;;;25499169;23;20377;-70
2022/11/09 19:47:12;;;;;;;0.20;0.00;;;20.30;99.90;;;;;;25527535;23;20365;-71
2022/11/09 19:57:17;;;;;;;0.20;0.10;;;20.50;99.90;;;;;;25527247;23;20377;-68
2022/11/09 20:07:22;;;;;;;0.20;0.00;;;20.10;99.90;;;;;;25526206;23;20373;-71
2022/11/09 20:17:27;;;;;;;0.20;0.00;;;19.90;99.90;;;;;;25532083;23;20373;-72
2022/11/09 20:27:31;;;;;;;0.20;0.00;;;20.10;99.90;;;;;;25539030;23;20365;-71
2022/11/09 20:37:40;;;;;;;0.20;0.00;;;20.00;99.90;;;;;;25539660;23;20381;-70
2022/11/09 20:47:44;;;;;;;0.20;0.10;;;19.60;99.90;;;;;;25515273;23;20377;-70
2022/11/09 20:58:11;;;;;;;0.20;0.00;;;19.60;99.90;;;;;;25537947;23;20415;-71
2022/11/09 21:08:15;;;;;;;0.20;0.08;;;19.50;99.90;;;;;;25540723;23;20369;-70
2022/11/09 21:18:20;;;;;;;0.20;0.10;;;19.20;99.90;;;;;;25541156;23;20377;-70
2022/11/09 21:38:47;;;;;;;0.20;0.00;;;19.20;99.90;;;;;;25535071;23;20381;-70
2022/11/09 21:48:51;;;;;;;0.20;0.00;;;18.90;99.90;;;;;;25508101;23;20384;-71
2022/11/09 21:58:56;;;;;;;0.20;0.00;;;18.70;99.90;;;;;;25505461;23;20377;-73
2022/11/09 22:09:00;;;;;;;0.20;0.00;;;18.40;99.90;;;;;;25510254;23;20377;-69
2022/11/09 22:29:27;;;;;;;0.20;0.00;;;18.20;99.90;;;;;;25508118;23;20362;-70
2022/11/09 22:39:32;;;;;;;0.20;0.10;;;18.10;99.90;;;;;;25509009;23;20377;-70
2022/11/09 22:49:36;;;;;;;0.20;0.00;;;18.10;99.90;;;;;;25534746;23;20373;-70
2022/11/09 22:59:41;;;;;;;0.20;0.00;;;17.90;99.90;;;;;;25536712;23;20989;-70
2022/11/09 23:09:45;;;;;;;0.20;0.00;;;17.80;99.90;;;;;;25533989;23;20372;-69
2022/11/09 23:19:50;;;;;;;0.20;0.00;;;17.70;99.90;;;;;;25535296;23;21089;-69
2022/11/09 23:29:54;;;;;;;0.20;0.00;;;17.50;99.90;;;;;;25507775;23;20372;-68
2022/11/09 23:39:59;;;;;;;0.20;0.05;;;17.70;99.90;;;;;;25534732;23;20377;-70
2022/11/09 23:50:04;;;;;;;0.20;0.00;;;17.70;99.90;;;;;;25509830;23;20374;-69
